Ah Gwah Ching, Minnesota
Current Conditions -  °F | °C
As of 4:15 AM on Monday 26 Jan 2015 (Local Time) from KY49 Reporting Station
Overcast Overcast  
Wind Chill: 18°   Ceiling: 1300
Heat Index: 27°   Visibility: 10mi
Dew Point: 23°   Wind: 10mph
Humidity: 85%   Direction: 240°WSW
Pressure: 29.61"   Gusts: NA
Location:  47.08°N, 94.57°W
Report Text: KY49 261015Z AUTO 24009KT 10SM OVC013 M03/M05 A2961 RMK AO2 T10271049
Loading
Personal Weather Stations






























Interactive Weather Map New forecast layout! Learn more

10-Day Weather Forecast

Advertisements
Track Severe Weather on mobile